logo
Search for airport 
image banner adimage banner adimage banner ad
image banner ad

LSPU - Munster

Located in Munster, Switzerland

ICAO - LSPU, IATA -

Data provided by Airmate  

General information

Coordinates: N46°28'48" E8°15'48"
Elevation is 4354 feet MSL.
Magnetic variation is 3.331° East
View others Airports in Valais

Operational data

Special qualification required
Current time UTC:
Current local time:
Weather at : LSMM - Meiringen ( 31 km )
METAR: LSMM 202150Z AUTO VRB01KT 9999NDV -RA FEW010 BKN012 OVC017 03/02 Q1022 RMK
View NOTAMs / SUP AIP / TFR affecting this airport [VIEW]
Communications frequencies: [VIEW]

Runways:

RWY identifierQFULength (ft)Width (ft)SurfaceLDA (ft)
0548°267459ASPH
23228°267459ASPH

Airport contact information

Address: Munster Switzerland

Satellite view of LSPU